Time;durP1;ratioP1;P1;durP2;ratioP2;P2;SDS_P1;SDS_P2;PMS_P1;PMS_P2;Temp;Humidity;BMP_temperature;BMP_pressure;BME280_temperature;BME280_humidity;BME280_pressure;Samples;Min_cycle;Max_cycle;Signal;HPM_P1;HPM_P2
2024/04/14 00:01:03;;;;;;;;;;;;;;;9.47;100.00;100919.67;105984;1257;63560;-82
2024/04/14 00:03:31;;;;;;;;;;;;;;;9.43;100.00;100925.25;106012;1256;62052;-82
2024/04/14 00:05:58;;;;;;;;;;;;;;;9.40;100.00;100921.02;106036;1260;75930;-82
2024/04/14 00:08:27;;;;;;;;;;;;;;;9.37;100.00;100925.27;106822;1257;70682;-82
2024/04/14 00:10:57;;;;;;;;;;;;;;;9.35;100.00;100925.34;106177;1261;72484;-87
2024/04/14 00:13:25;;;;;;;;;;;;;;;9.28;100.00;100930.58;105978;1258;62255;-86
2024/04/14 00:16:00;;;;;;;;;;;;;;;9.20;100.00;100933.66;106077;1261;62034;-83
2024/04/14 00:18:27;;;;;;;;;;;;;;;9.23;100.00;100934.33;106009;1257;77583;-86
2024/04/14 00:20:56;;;;;;;;;;;;;;;9.24;100.00;100940.90;106402;1257;68540;-86
2024/04/14 00:23:23;;;;;;;;;;;;;;;9.26;100.00;100938.56;106041;1258;71882;-81
2024/04/14 00:25:52;;;;;;;;;;;;;;;9.30;100.00;100936.70;106097;1256;62242;-82
2024/04/14 00:28:20;;;;;;;;;;;;;;;9.37;100.00;100936.70;106028;1259;61970;-85
2024/04/14 00:30:47;;;;;;;;;;;;;;;9.41;100.00;100933.58;105955;1258;73763;-86
2024/04/14 00:33:15;;;;;;;;;;;;;;;9.48;100.00;100932.71;106077;1256;67393;-82
2024/04/14 00:35:43;;;;;;;;;;;;;;;9.47;100.00;100926.98;106525;1257;72768;-87
2024/04/14 00:38:10;;;;;;;;;;;;;;;9.47;100.00;100933.64;106147;1262;62056;-82
2024/04/14 00:40:37;;;;;;;;;;;;;;;9.39;100.00;100928.11;105998;1256;62155;-82
2024/04/14 00:43:05;;;;;;;;;;;;;;;9.39;100.00;100926.48;106078;1256;75523;-87
2024/04/14 00:45:32;;;;;;;;;;;;;;;9.38;100.00;100920.80;105971;1256;68011;-82
2024/04/14 00:47:59;;;;;;;;;;;;;;;9.37;100.00;100920.18;105996;1260;71950;-86
2024/04/14 00:50:27;;;;;;;;;;;;;;;9.36;100.00;100920.77;106656;1257;62110;-82
2024/04/14 00:52:54;;;;;;;;;;;;;;;9.36;100.00;100917.13;106157;1262;62048;-82
2024/04/14 00:55:22;;;;;;;;;;;;;;;9.29;100.00;100909.14;105999;1257;75952;-82
2024/04/14 00:57:49;;;;;;;;;;;;;;;9.21;100.00;100907.77;105994;1258;68525;-82
2024/04/14 01:00:17;;;;;;;;;;;;;;;9.16;100.00;100906.23;106047;1256;72707;-82
2024/04/14 01:02:45;;;;;;;;;;;;;;;9.13;100.00;100904.48;106066;1256;62089;-82
2024/04/14 01:05:12;;;;;;;;;;;;;;;9.07;100.00;100905.61;106165;1260;62047;-85
2024/04/14 01:07:40;;;;;;;;;;;;;;;9.02;100.00;100912.55;106030;1256;75411;-81
2024/04/14 01:10:08;;;;;;;;;;;;;;;8.99;100.00;100909.15;105987;1257;68926;-86
2024/04/14 01:12:35;;;;;;;;;;;;;;;8.89;100.00;100908.98;106042;1260;72656;-87
2024/04/14 01:15:03;;;;;;;;;;;;;;;8.84;100.00;100905.50;106003;1260;62070;-82
2024/04/14 01:17:30;;;;;;;;;;;;;;;8.87;100.00;100899.14;106028;1259;61965;-82
2024/04/14 01:19:58;;;;;;;;;;;;;;;8.82;100.00;100895.08;106489;1256;75500;-87
2024/04/14 01:22:26;;;;;;;;;;;;;;;8.78;100.00;100894.70;105943;1256;68910;-87
2024/04/14 01:25:06;;;;;;;;;;;;;;;8.73;100.00;100889.91;105911;1260;71218;-82
2024/04/14 01:27:34;;;;;;;;;;;;;;;8.67;100.00;100887.59;106175;1256;61991;-83
2024/04/14 01:30:05;;;;;;;;;;;;;;;8.60;100.00;100883.46;106132;1261;61962;-82
2024/04/14 01:32:39;;;;;;;;;;;;;;;8.55;100.00;100883.89;106076;1256;75609;-82
2024/04/14 01:35:09;;;;;;;;;;;;;;;8.50;100.00;100885.52;106316;1259;68159;-87
2024/04/14 01:37:37;;;;;;;;;;;;;;;8.44;100.00;100886.48;105980;1257;72620;-87
2024/04/14 01:40:05;;;;;;;;;;;;;;;8.37;100.00;100893.88;106059;1257;62112;-82
2024/04/14 01:42:33;;;;;;;;;;;;;;;8.31;100.00;100892.22;106078;1256;62072;-83
2024/04/14 01:45:00;;;;;;;;;;;;;;;8.25;100.00;100895.86;105925;1257;75556;-86
2024/04/14 01:47:28;;;;;;;;;;;;;;;8.20;100.00;100900.73;105917;1256;68975;-83
2024/04/14 01:49:56;;;;;;;;;;;;;;;8.15;100.00;100906.14;106128;1256;71486;-86
2024/04/14 01:52:23;;;;;;;;;;;;;;;8.09;100.00;100907.35;106024;1259;62047;-82
2024/04/14 01:54:53;;;;;;;;;;;;;;;8.07;100.00;100907.98;106232;1257;61984;-86
2024/04/14 01:57:21;;;;;;;;;;;;;;;8.06;100.00;100910.22;105877;1257;75758;-87
2024/04/14 01:59:48;;;;;;;;;;;;;;;8.07;100.00;100914.68;106927;1256;68576;-84
2024/04/14 02:02:16;;;;;;;;;;;;;;;8.05;100.00;100921.41;105937;1262;71785;-83
2024/04/14 02:04:44;;;;;;;;;;;;;;;8.02;100.00;100920.97;106024;1258;62153;-86
2024/04/14 02:07:12;;;;;;;;;;;;;;;8.00;100.00;100926.34;105978;1256;62131;-84
2024/04/14 02:09:39;;;;;;;;;;;;;;;8.02;100.00;100932.68;106046;1257;75825;-83
2024/04/14 02:12:07;;;;;;;;;;;;;;;8.05;100.00;100932.29;106104;1257;66668;-82
2024/04/14 02:14:34;;;;;;;;;;;;;;;8.06;100.00;100933.88;106123;1260;71429;-82
2024/04/14 02:17:02;;;;;;;;;;;;;;;8.05;100.00;100936.96;106207;1256;63239;-83
2024/04/14 02:19:30;;;;;;;;;;;;;;;8.11;100.00;100932.48;105909;1257;62127;-83
2024/04/14 02:21:57;;;;;;;;;;;;;;;8.15;100.00;100930.70;105991;1261;74294;-82
2024/04/14 02:24:29;;;;;;;;;;;;;;;8.17;100.00;100931.15;106085;1259;67260;-87
2024/04/14 02:26:56;;;;;;;;;;;;;;;8.21;100.00;100932.55;106029;1256;71773;-87
2024/04/14 02:29:24;;;;;;;;;;;;;;;8.22;100.00;100934.20;106115;1257;62110;-82
2024/04/14 02:31:51;;;;;;;;;;;;;;;8.26;100.00;100938.61;106419;1256;62134;-83
2024/04/14 02:34:19;;;;;;;;;;;;;;;8.30;100.00;100938.35;105981;1261;75513;-82
2024/04/14 02:36:46;;;;;;;;;;;;;;;8.37;100.00;100935.00;105921;1257;68652;-87
2024/04/14 02:39:14;;;;;;;;;;;;;;;8.40;100.00;100926.29;106021;1257;72970;-87
2024/04/14 02:41:41;;;;;;;;;;;;;;;8.43;100.00;100921.43;106049;1256;62169;-83
2024/04/14 02:44:09;;;;;;;;;;;;;;;8.42;100.00;100917.11;105915;1257;61956;-87
2024/04/14 02:46:37;;;;;;;;;;;;;;;8.32;100.00;100914.63;106030;1256;75571;-87
2024/04/14 02:49:04;;;;;;;;;;;;;;;8.29;100.00;100913.34;105999;1262;67302;-82
2024/04/14 02:51:32;;;;;;;;;;;;;;;8.25;100.00;100916.65;106091;1258;72545;-87
2024/04/14 02:54:00;;;;;;;;;;;;;;;8.19;100.00;100924.00;105921;1262;62193;-87
2024/04/14 02:56:27;;;;;;;;;;;;;;;8.13;100.00;100924.23;106071;1256;62081;-82
2024/04/14 02:58:55;;;;;;;;;;;;;;;8.12;100.00;100925.91;106075;1256;75447;-82
2024/04/14 03:01:22;;;;;;;;;;;;;;;8.10;100.00;100925.01;106385;1259;67421;-82
2024/04/14 03:03:50;;;;;;;;;;;;;;;8.08;100.00;100931.67;106037;1260;72724;-86
2024/04/14 03:06:18;;;;;;;;;;;;;;;8.05;100.00;100930.12;106107;1256;62032;-86
2024/04/14 03:08:45;;;;;;;;;;;;;;;8.04;100.00;100926.56;106071;1256;62160;-83
2024/04/14 03:11:12;;;;;;;;;;;;;;;8.04;100.00;100930.42;105998;1256;73897;-83
2024/04/14 03:13:41;;;;;;;;;;;;;;;8.04;100.00;100924.77;106284;1256;67857;-86
2024/04/14 03:16:09;;;;;;;;;;;;;;;8.06;100.00;100932.73;106148;1262;72404;-87
2024/04/14 03:18:37;;;;;;;;;;;;;;;8.07;100.00;100931.89;105952;1256;62178;-83
2024/04/14 03:21:05;;;;;;;;;;;;;;;8.07;100.00;100943.86;106096;1262;61964;-86
2024/04/14 03:23:35;;;;;;;;;;;;;;;8.05;100.00;100940.02;105895;1259;74542;-83
2024/04/14 03:26:04;;;;;;;;;;;;;;;8.08;100.00;100932.18;105979;1259;68471;-88
2024/04/14 03:28:32;;;;;;;;;;;;;;;8.18;100.00;100931.20;106088;1257;73189;-83
2024/04/14 03:31:02;;;;;;;;;;;;;;;8.26;100.00;100932.90;106186;1256;61973;-83
2024/04/14 03:33:30;;;;;;;;;;;;;;;8.30;100.00;100932.46;105967;1256;62111;-83
2024/04/14 03:35:59;;;;;;;;;;;;;;;8.25;100.00;100935.06;106017;1256;75490;-83
2024/04/14 03:38:26;;;;;;;;;;;;;;;8.25;100.00;100934.46;105952;1262;69846;-83
2024/04/14 03:40:54;;;;;;;;;;;;;;;8.23;100.00;100935.48;106038;1260;72691;-88
2024/04/14 03:43:21;;;;;;;;;;;;;;;8.28;100.00;100935.54;106043;1259;62150;-87
2024/04/14 03:45:49;;;;;;;;;;;;;;;8.32;100.00;100935.53;106495;1256;62072;-83
2024/04/14 03:48:16;;;;;;;;;;;;;;;8.38;100.00;100937.27;105945;1261;75618;-84
2024/04/14 03:50:47;;;;;;;;;;;;;;;8.46;100.00;100933.68;106050;1261;67492;-88
2024/04/14 03:53:14;;;;;;;;;;;;;;;8.53;100.00;100933.88;105941;1259;73186;-88
2024/04/14 03:55:43;;;;;;;;;;;;;;;8.64;100.00;100937.05;106023;1262;62064;-83
2024/04/14 03:58:11;;;;;;;;;;;;;;;8.77;100.00;100944.17;105965;1262;62217;-83
2024/04/14 04:00:38;;;;;;;;;;;;;;;8.97;100.00;100951.43;106355;1256;74328;-88
2024/04/14 04:03:06;;;;;;;;;;;;;;;9.13;100.00;100952.18;106151;1256;68513;-88
2024/04/14 04:05:33;;;;;;;;;;;;;;;9.36;100.00;100954.98;106019;1258;72894;-84
2024/04/14 04:08:02;;;;;;;;;;;;;;;9.61;100.00;100955.63;105827;1259;62033;-88
2024/04/14 04:10:34;;;;;;;;;;;;;;;9.86;100.00;100950.25;106058;1261;61959;-88
2024/04/14 04:13:01;;;;;;;;;;;;;;;10.15;100.00;100948.58;106049;1257;75853;-83
2024/04/14 04:15:29;;;;;;;;;;;;;;;10.46;100.00;100937.95;106292;1256;68487;-83
2024/04/14 04:17:56;;;;;;;;;;;;;;;10.71;100.00;100947.07;106025;1256;71154;-83
2024/04/14 04:20:24;;;;;;;;;;;;;;;10.92;100.00;100945.48;106064;1259;62150;-84
2024/04/14 04:22:51;;;;;;;;;;;;;;;11.14;100.00;100942.58;105958;1256;62167;-84
2024/04/14 04:25:19;;;;;;;;;;;;;;;11.36;100.00;100943.95;106125;1256;74585;-89
2024/04/14 04:27:46;;;;;;;;;;;;;;;11.54;100.00;100945.77;105921;1259;68839;-88
2024/04/14 04:30:14;;;;;;;;;;;;;;;11.67;100.00;100950.48;106011;1258;72468;-88
2024/04/14 04:32:42;;;;;;;;;;;;;;;11.73;100.00;100950.09;106563;1261;62028;-88
2024/04/14 04:35:09;;;;;;;;;;;;;;;11.94;100.00;100949.29;106029;1256;62092;-83
2024/04/14 04:37:37;;;;;;;;;;;;;;;12.02;100.00;100941.11;106153;1256;75513;-83
2024/04/14 04:40:04;;;;;;;;;;;;;;;12.08;100.00;100932.94;105972;1256;68601;-84
2024/04/14 04:42:32;;;;;;;;;;;;;;;12.15;100.00;100925.96;106188;1256;72708;-89
2024/04/14 04:44:59;;;;;;;;;;;;;;;12.15;100.00;100928.92;105999;1261;62045;-83
2024/04/14 04:47:27;;;;;;;;;;;;;;;12.24;100.00;100934.16;106298;1260;62371;-82
2024/04/14 04:49:55;;;;;;;;;;;;;;;12.39;100.00;100926.94;105953;1260;75484;-87
2024/04/14 04:52:22;;;;;;;;;;;;;;;12.56;100.00;100925.60;105940;1264;67404;-86
2024/04/14 04:54:50;;;;;;;;;;;;;;;12.67;100.00;100925.60;106132;1261;72376;-83
2024/04/14 04:57:17;;;;;;;;;;;;;;;12.73;100.00;100921.52;106106;1262;62039;-86
2024/04/14 04:59:45;;;;;;;;;;;;;;;12.81;100.00;100926.40;105936;1256;61986;-86
2024/04/14 05:02:12;;;;;;;;;;;;;;;12.93;100.00;100926.39;106719;1259;75504;-82
2024/04/14 05:04:41;;;;;;;;;;;;;;;13.06;100.00;100922.91;105956;1256;67582;-86
2024/04/14 05:07:09;;;;;;;;;;;;;;;13.23;100.00;100919.40;106075;1256;72282;-83
2024/04/14 05:09:36;;;;;;;;;;;;;;;13.47;100.00;100918.63;105997;1262;62095;-87
2024/04/14 05:12:04;;;;;;;;;;;;;;;13.71;100.00;100918.14;106092;1262;61970;-87
2024/04/14 05:14:31;;;;;;;;;;;;;;;13.94;100.00;100913.96;106061;1257;74378;-82
2024/04/14 05:16:59;;;;;;;;;;;;;;;14.18;100.00;100913.70;106069;1257;67575;-83
2024/04/14 05:19:26;;;;;;;;;;;;;;;14.40;100.00;100916.53;106334;1260;74749;-83
2024/04/14 05:21:54;;;;;;;;;;;;;;;14.55;100.00;100909.39;106072;1262;62036;-83
2024/04/14 05:24:21;;;;;;;;;;;;;;;14.73;100.00;100912.29;105992;1257;62652;-87
2024/04/14 05:26:49;;;;;;;;;;;;;;;14.91;100.00;100908.27;106000;1256;75418;-86
2024/04/14 05:29:16;;;;;;;;;;;;;;;15.10;100.00;100897.66;105996;1257;68485;-83
2024/04/14 05:31:44;;;;;;;;;;;;;;;15.26;100.00;100900.55;106491;1262;71469;-83
2024/04/14 05:34:12;;;;;;;;;;;;;;;15.42;100.00;100894.17;106046;1260;61923;-86
2024/04/14 05:36:40;;;;;;;;;;;;;;;15.54;100.00;100891.60;105952;1261;62010;-87
2024/04/14 05:39:08;;;;;;;;;;;;;;;15.65;100.00;100899.89;106037;1259;75590;-87
2024/04/14 05:41:35;;;;;;;;;;;;;;;15.76;100.00;100902.21;106028;1259;68613;-83
2024/04/14 05:44:02;;;;;;;;;;;;;;;15.84;100.00;100902.17;106342;1259;71853;-83
2024/04/14 05:46:30;;;;;;;;;;;;;;;15.96;100.00;100901.63;105952;1257;62121;-84
2024/04/14 05:48:58;;;;;;;;;;;;;;;16.09;100.00;100903.35;105875;1256;62155;-87
2024/04/14 05:51:45;;;;;;;;;;;;;;;16.22;100.00;100907.69;105871;1262;75475;-87
2024/04/14 05:54:13;;;;;;;;;;;;;;;16.37;100.00;100908.77;105858;1256;67707;-86
2024/04/14 05:56:41;;;;;;;;;;;;;;;16.49;100.00;100902.84;106200;1256;72708;-81
2024/04/14 05:59:08;;;;;;;;;;;;;;;16.61;100.00;100900.27;106120;1257;62016;-86
2024/04/14 06:01:35;;;;;;;;;;;;;;;16.75;100.00;100898.69;105991;1256;62273;-86
2024/04/14 06:04:03;;;;;;;;;;;;;;;16.84;100.00;100896.52;105918;1256;74685;-87
2024/04/14 06:06:31;;;;;;;;;;;;;;;16.94;100.00;100891.27;105999;1259;70430;-83
2024/04/14 06:08:58;;;;;;;;;;;;;;;17.12;100.00;100890.39;106075;1256;72759;-81
2024/04/14 06:11:26;;;;;;;;;;;;;;;17.32;100.00;100888.05;106354;1258;62078;-87
2024/04/14 06:13:53;;;;;;;;;;;;;;;17.47;100.00;100885.05;106296;1255;62223;-87
2024/04/14 06:16:21;;;;;;;;;;;;;;;17.60;100.00;100886.52;106123;1257;74311;-88
2024/04/14 06:18:48;;;;;;;;;;;;;;;17.71;100.00;100887.45;105973;1256;68010;-84
2024/04/14 06:21:16;;;;;;;;;;;;;;;17.79;100.00;100885.27;106045;1256;71450;-84
2024/04/14 06:23:43;;;;;;;;;;;;;;;17.83;99.81;100882.11;106473;1255;60274;-87
2024/04/14 06:26:11;;;;;;;;;;;;;;;17.91;99.66;100885.75;106332;1256;62127;-82
2024/04/14 06:28:38;;;;;;;;;;;;;;;17.92;99.89;100881.70;106049;1256;75648;-83
2024/04/14 06:31:08;;;;;;;;;;;;;;;18.11;96.78;100878.13;106064;1260;68952;-84
2024/04/14 06:33:35;;;;;;;;;;;;;;;18.14;96.36;100873.65;105917;1262;71456;-87
2024/04/14 06:36:03;;;;;;;;;;;;;;;18.21;96.89;100869.99;105984;1261;62125;-87
2024/04/14 06:38:31;;;;;;;;;;;;;;;18.45;93.83;100869.08;106192;1262;62033;-87
2024/04/14 06:40:58;;;;;;;;;;;;;;;18.57;90.99;100868.45;106329;1256;75719;-86
2024/04/14 06:43:26;;;;;;;;;;;;;;;18.62;88.71;100864.41;106058;1262;67326;-86
2024/04/14 06:45:54;;;;;;;;;;;;;;;18.56;89.61;100859.29;105989;1258;73013;-88
2024/04/14 06:48:22;;;;;;;;;;;;;;;18.74;89.20;100858.65;105997;1257;61967;-84
2024/04/14 06:50:49;;;;;;;;;;;;;;;18.91;87.61;100851.09;106334;1259;62342;-85
2024/04/14 06:53:20;;;;;;;;;;;;;;;19.04;85.67;100850.30;106043;1256;75548;-84
2024/04/14 06:55:50;;;;;;;;;;;;;;;19.17;84.22;100842.83;106019;1256;68539;-87
2024/04/14 06:58:18;;;;;;;;;;;;;;;19.34;83.55;100839.22;106526;1256;74805;-84
2024/04/14 07:00:45;;;;;;;;;;;;;;;19.52;83.14;100837.77;106234;1257;61960;-84
2024/04/14 07:03:14;;;;;;;;;;;;;;;19.65;81.72;100834.38;106337;1260;62105;-88
2024/04/14 07:05:42;;;;;;;;;;;;;;;19.71;80.13;100833.27;106119;1256;77309;-87
2024/04/14 07:08:09;;;;;;;;;;;;;;;19.77;78.53;100833.48;106050;1257;69140;-84
2024/04/14 07:10:37;;;;;;;;;;;;;;;19.88;73.49;100834.58;106216;1256;73940;-85
2024/04/14 07:13:04;;;;;;;;;;;;;;;20.00;69.01;100833.73;106200;1257;62135;-83
2024/04/14 07:15:32;;;;;;;;;;;;;;;19.99;65.80;100835.77;106464;1256;62067;-84
2024/04/14 07:18:00;;;;;;;;;;;;;;;19.99;64.83;100841.05;106430;1256;74605;-84
2024/04/14 07:20:28;;;;;;;;;;;;;;;20.02;64.71;100839.43;108860;1256;70953;-88
2024/04/14 07:22:56;;;;;;;;;;;;;;;20.12;65.72;100835.17;108271;1260;70885;-89
2024/04/14 07:25:23;;;;;;;;;;;;;;;20.31;63.61;100834.41;106611;1256;62544;-85
2024/04/14 07:27:51;;;;;;;;;;;;;;;20.46;62.72;100836.66;106547;1256;62165;-89
2024/04/14 07:30:18;;;;;;;;;;;;;;;20.60;61.57;100838.43;108392;1260;75988;-84
2024/04/14 07:32:46;;;;;;;;;;;;;;;20.66;60.63;100832.60;106064;1257;69673;-85
2024/04/14 07:35:14;;;;;;;;;;;;;;;20.72;59.73;100830.52;106390;1256;71614;-87
2024/04/14 07:37:41;;;;;;;;;;;;;;;20.77;59.41;100821.52;106508;1261;61978;-87
2024/04/14 07:40:09;;;;;;;;;;;;;;;20.79;58.64;100825.50;106608;1260;61979;-88
2024/04/14 07:42:37;;;;;;;;;;;;;;;20.79;58.38;100822.79;108814;1256;74818;-85
2024/04/14 07:45:05;;;;;;;;;;;;;;;20.78;59.42;100819.27;108943;1256;67693;-88
2024/04/14 07:47:32;;;;;;;;;;;;;;;20.81;59.70;100815.09;107187;1257;71493;-88
2024/04/14 07:50:00;;;;;;;;;;;;;;;20.88;59.54;100806.61;106290;1256;62054;-86
2024/04/14 07:52:27;;;;;;;;;;;;;;;20.91;60.19;100805.64;105966;1257;60278;-89
2024/04/14 07:54:55;;;;;;;;;;;;;;;20.95;60.75;100802.36;106112;1259;75533;-89
2024/04/14 07:57:22;;;;;;;;;;;;;;;21.01;61.00;100799.23;106120;1263;68971;-86
2024/04/14 07:59:50;;;;;;;;;;;;;;;21.11;58.87;100799.18;106779;1258;72959;-85
2024/04/14 08:02:18;;;;;;;;;;;;;;;21.24;58.43;100795.30;106153;1257;62455;-87
2024/04/14 08:04:45;;;;;;;;;;;;;;;21.38;56.26;100796.96;105926;1257;62085;-87
2024/04/14 08:07:13;;;;;;;;;;;;;;;21.42;55.46;100795.73;106252;1257;74301;-89
2024/04/14 08:09:40;;;;;;;;;;;;;;;21.45;56.31;100793.38;106028;1256;68937;-84
2024/04/14 08:12:08;;;;;;;;;;;;;;;21.52;55.82;100790.23;106221;1260;73378;-85
2024/04/14 08:14:39;;;;;;;;;;;;;;;21.54;55.01;100788.56;106339;1262;61971;-84
2024/04/14 08:17:06;;;;;;;;;;;;;;;21.52;55.19;100786.34;106165;1257;62162;-86
2024/04/14 08:19:34;;;;;;;;;;;;;;;21.54;54.93;100788.27;106190;1257;74697;-86
2024/04/14 08:22:01;;;;;;;;;;;;;;;21.64;55.08;100784.84;106180;1260;68606;-86
2024/04/14 08:24:29;;;;;;;;;;;;;;;21.77;53.10;100786.07;106103;1262;71616;-87
2024/04/14 08:26:57;;;;;;;;;;;;;;;21.78;53.16;100788.56;106336;1260;62156;-87
2024/04/14 08:29:25;;;;;;;;;;;;;;;21.74;53.61;100787.17;106478;1261;61957;-85
2024/04/14 08:31:55;;;;;;;;;;;;;;;21.80;52.75;100784.27;106202;1260;74281;-87
2024/04/14 08:34:23;;;;;;;;;;;;;;;21.77;52.71;100781.86;106478;1262;68881;-87
2024/04/14 08:36:51;;;;;;;;;;;;;;;21.78;52.18;100782.59;106081;1256;73033;-85
2024/04/14 08:39:19;;;;;;;;;;;;;;;21.77;51.66;100785.27;106697;1258;62111;-86
2024/04/14 08:41:46;;;;;;;;;;;;;;;21.78;50.95;100789.70;106202;1258;62228;-87
2024/04/14 08:44:14;;;;;;;;;;;;;;;21.77;51.59;100787.57;105987;1258;75551;-89
2024/04/14 08:46:42;;;;;;;;;;;;;;;21.72;52.21;100781.79;106034;1262;67905;-87
2024/04/14 08:49:12;;;;;;;;;;;;;;;21.77;52.42;100784.70;106088;1261;72763;-89
2024/04/14 08:51:40;;;;;;;;;;;;;;;21.81;52.19;100786.61;105991;1259;62056;-90
2024/04/14 08:54:08;;;;;;;;;;;;;;;21.87;52.39;100785.77;106538;1257;62142;-84
2024/04/14 08:56:35;;;;;;;;;;;;;;;21.91;52.15;100779.15;106106;1262;75993;-86
2024/04/14 08:59:04;;;;;;;;;;;;;;;21.86;51.64;100773.50;106218;1260;69039;-84
2024/04/14 09:01:33;;;;;;;;;;;;;;;21.87;52.74;100770.20;106076;1259;72997;-84
2024/04/14 09:04:04;;;;;;;;;;;;;;;21.95;52.01;100767.90;106156;1262;62300;-87
2024/04/14 09:06:32;;;;;;;;;;;;;;;21.84;51.56;100765.02;106236;1257;61973;-86
2024/04/14 09:09:01;;;;;;;;;;;;;;;21.94;52.67;100761.96;106126;1256;75588;-87
2024/04/14 09:11:29;;;;;;;;;;;;;;;21.97;51.62;100765.08;106597;1257;67323;-85
2024/04/14 09:13:56;;;;;;;;;;;;;;;21.98;51.45;100757.09;106246;1262;71555;-84
2024/04/14 09:16:24;;;;;;;;;;;;;;;21.96;51.45;100751.80;106162;1258;62127;-83
2024/04/14 09:18:55;;;;;;;;;;;;;;;21.97;50.70;100750.38;106354;1256;62041;-87
2024/04/14 09:21:24;;;;;;;;;;;;;;;21.85;52.20;100740.63;106649;1257;74259;-88
2024/04/14 09:23:56;;;;;;;;;;;;;;;21.82;52.74;100733.30;106263;1258;68931;-87
2024/04/14 09:26:25;;;;;;;;;;;;;;;22.08;51.58;100735.55;106711;1257;72733;-85
2024/04/14 09:29:05;;;;;;;;;;;;;;;22.15;50.54;100737.66;106521;1257;62098;-82
2024/04/14 09:31:35;;;;;;;;;;;;;;;22.20;49.93;100736.16;106858;1258;62048;-86
2024/04/14 09:34:03;;;;;;;;;;;;;;;22.35;49.47;100728.11;106998;1257;75605;-87
2024/04/14 09:36:31;;;;;;;;;;;;;;;22.49;48.13;100724.06;106625;1257;68607;-87
2024/04/14 09:38:58;;;;;;;;;;;;;;;22.52;46.82;100724.58;108891;1255;71808;-89
2024/04/14 09:41:26;;;;;;;;;;;;;;;22.36;47.03;100724.73;106235;1260;62162;-83
2024/04/14 09:43:54;;;;;;;;;;;;;;;22.30;47.99;100719.78;106016;1260;62028;-89
2024/04/14 09:46:21;;;;;;;;;;;;;;;22.34;48.67;100717.36;105998;1262;75511;-84
2024/04/14 09:48:49;;;;;;;;;;;;;;;22.40;48.86;100715.06;106005;1262;67260;-84
2024/04/14 09:51:16;;;;;;;;;;;;;;;22.58;48.66;100707.14;106102;1262;72849;-85
2024/04/14 09:53:44;;;;;;;;;;;;;;;22.87;47.61;100704.67;106021;1257;62114;-83
2024/04/14 09:56:12;;;;;;;;;;;;;;;23.01;46.92;100698.77;106162;1257;62140;-85
2024/04/14 09:58:39;;;;;;;;;;;;;;;23.15;46.09;100693.65;106107;1258;74012;-82
2024/04/14 10:01:08;;;;;;;;;;;;;;;23.22;45.40;100690.72;106142;1258;67763;-84
2024/04/14 10:03:36;;;;;;;;;;;;;;;23.18;46.04;100686.91;106042;1262;73683;-82
2024/04/14 10:06:03;;;;;;;;;;;;;;;23.24;46.22;100681.45;106235;1257;62117;-84
2024/04/14 10:08:32;;;;;;;;;;;;;;;23.37;46.04;100679.41;106923;1257;62079;-84
2024/04/14 10:11:03;;;;;;;;;;;;;;;23.49;45.54;100665.09;106535;1261;77877;-85
2024/04/14 10:13:45;;;;;;;;;;;;;;;23.55;45.38;100660.72;106173;1257;67893;-83
2024/04/14 10:16:15;;;;;;;;;;;;;;;23.60;45.20;100657.48;105889;1259;72359;-84
2024/04/14 10:18:44;;;;;;;;;;;;;;;23.69;45.13;100653.37;106292;1262;61992;-83
2024/04/14 10:21:12;;;;;;;;;;;;;;;23.75;44.68;100651.39;105985;1262;62037;-82
2024/04/14 10:23:45;;;;;;;;;;;;;;;23.75;45.10;100643.57;106035;1262;74533;-84
2024/04/14 10:26:19;;;;;;;;;;;;;;;23.82;44.68;100633.71;106552;1262;67636;-81
2024/04/14 10:28:50;;;;;;;;;;;;;;;23.98;44.95;100630.04;105963;1262;72771;-85
2024/04/14 10:31:25;;;;;;;;;;;;;;;24.23;44.35;100626.73;106035;1260;61999;-83
2024/04/14 10:34:02;;;;;;;;;;;;;;;24.42;42.75;100634.63;106066;1262;62122;-84
2024/04/14 10:36:30;;;;;;;;;;;;;;;24.36;41.52;100629.70;106012;1262;76522;-82
2024/04/14 10:38:57;;;;;;;;;;;;;;;24.19;41.61;100627.22;106266;1256;69062;-83
2024/04/14 10:41:25;;;;;;;;;;;;;;;24.10;41.90;100622.33;104738;1260;1886804;-83
2024/04/14 10:43:52;;;;;;;;;;;;;;;24.10;42.39;100617.71;106176;1261;62139;-84
2024/04/14 10:46:20;;;;;;;;;;;;;;;24.08;42.23;100613.75;105930;1258;62143;-82
2024/04/14 10:48:47;;;;;;;;;;;;;;;24.12;41.79;100614.06;105944;1257;75521;-84
2024/04/14 10:51:15;;;;;;;;;;;;;;;24.08;42.80;100613.27;105985;1263;67287;-82
2024/04/14 10:53:42;;;;;;;;;;;;;;;24.12;42.51;100609.85;106098;1262;71448;-84
2024/04/14 10:56:11;;;;;;;;;;;;;;;24.16;41.96;100610.02;106138;1261;62182;-84
2024/04/14 10:58:39;;;;;;;;;;;;;;;24.12;42.21;100603.39;105953;1258;62344;-85
2024/04/14 11:01:06;;;;;;;;;;;;;;;24.09;42.11;100596.55;106018;1261;74472;-81
2024/04/14 11:03:34;;;;;;;;;;;;;;;24.11;41.28;100594.20;106045;1263;69033;-80
2024/04/14 11:06:03;;;;;;;;;;;;;;;24.01;41.53;100589.13;105940;1263;73013;-83
2024/04/14 11:08:30;;;;;;;;;;;;;;;23.94;41.96;100586.59;106039;1264;62088;-85
2024/04/14 11:10:58;;;;;;;;;;;;;;;24.07;42.25;100583.04;105909;1260;62143;-86
2024/04/14 11:13:27;;;;;;;;;;;;;;;24.23;41.95;100585.34;106183;1260;75590;-83
2024/04/14 11:15:58;;;;;;;;;;;;;;;24.27;41.76;100576.24;106035;1263;68535;-83
2024/04/14 11:18:29;;;;;;;;;;;;;;;24.28;41.29;100564.77;105928;1257;73232;-81
2024/04/14 11:20:57;;;;;;;;;;;;;;;24.23;41.04;100558.15;106032;1258;62175;-82
2024/04/14 11:23:25;;;;;;;;;;;;;;;24.21;40.94;100552.93;106075;1263;61967;-83
2024/04/14 11:25:52;;;;;;;;;;;;;;;24.25;41.61;100550.28;106014;1258;75520;-81
2024/04/14 11:28:20;;;;;;;;;;;;;;;24.38;41.44;100544.84;106005;1262;68594;-82
2024/04/14 11:30:49;;;;;;;;;;;;;;;24.54;41.74;100541.34;105927;1261;63976;-83
2024/04/14 11:33:20;;;;;;;;;;;;;;;24.68;41.43;100541.35;106017;1257;62235;-82
2024/04/14 11:35:54;;;;;;;;;;;;;;;24.86;40.73;100528.48;105917;1257;62409;-83
2024/04/14 11:38:22;;;;;;;;;;;;;;;25.06;40.28;100523.42;106225;1257;77764;-82
2024/04/14 11:40:49;;;;;;;;;;;;;;;25.20;40.20;100514.31;106016;1262;62147;-83
2024/04/14 11:43:17;;;;;;;;;;;;;;;25.36;39.81;100508.70;106163;1263;63800;-85
2024/04/14 11:45:48;;;;;;;;;;;;;;;25.46;39.00;100502.05;105937;1258;62431;-83
2024/04/14 11:48:17;;;;;;;;;;;;;;;25.42;39.37;100507.19;106045;1257;62693;-85
2024/04/14 11:50:45;;;;;;;;;;;;;;;25.36;39.34;100492.09;106109;1263;66756;-84
2024/04/14 11:53:12;;;;;;;;;;;;;;;25.35;39.18;100499.51;105939;1260;62089;-84
2024/04/14 11:55:40;;;;;;;;;;;;;;;25.33;39.19;100494.21;106867;1262;62731;-83
2024/04/14 11:58:08;;;;;;;;;;;;;;;25.31;39.04;100488.91;106787;1257;62079;-84
2024/04/14 12:00:36;;;;;;;;;;;;;;;25.24;38.83;100491.52;106453;1258;62348;-82
2024/04/14 12:03:03;;;;;;;;;;;;;;;25.16;38.98;100491.73;106244;1260;69062;-84
2024/04/14 12:05:31;;;;;;;;;;;;;;;25.18;39.04;100485.84;106301;1261;62034;-81
2024/04/14 12:07:58;;;;;;;;;;;;;;;25.22;38.94;100473.38;106032;1259;63864;-84
2024/04/14 12:10:26;;;;;;;;;;;;;;;25.21;38.74;100467.84;106026;1257;62133;-83
2024/04/14 12:12:54;;;;;;;;;;;;;;;25.27;38.89;100464.81;106024;1257;62167;-82
2024/04/14 12:15:22;;;;;;;;;;;;;;;25.34;39.12;100458.73;106311;1258;76899;-82
2024/04/14 12:17:50;;;;;;;;;;;;;;;25.45;39.33;100451.21;106031;1262;61957;-85
2024/04/14 12:20:18;;;;;;;;;;;;;;;25.59;39.15;100448.58;105987;1258;62531;-84
2024/04/14 12:22:46;;;;;;;;;;;;;;;25.71;38.85;100445.91;106114;1261;62086;-83
2024/04/14 12:25:13;;;;;;;;;;;;;;;25.69;38.91;100444.55;105980;1257;62070;-83
2024/04/14 12:27:41;;;;;;;;;;;;;;;25.73;38.90;100436.29;106139;1260;67175;-84
2024/04/14 12:30:08;;;;;;;;;;;;;;;25.83;38.68;100432.07;106211;1260;62012;-82